Time;durP1;ratioP1;P1;durP2;ratioP2;P2;SDS_P1;SDS_P2;PMS_P1;PMS_P2;Temp;Humidity;BMP_temperature;BMP_pressure;BME280_temperature;BME280_humidity;BME280_pressure;Samples;Min_cycle;Max_cycle;Signal;HPM_P1;HPM_P2
2023/10/25 00:00:09;;;;;;;5.17;4.67;;;14.20;99.90;;;;;;5075884;28;20175;-77
2023/10/25 00:02:36;;;;;;;5.03;4.60;;;14.20;99.90;;;;;;5074538;28;20190;-77
2023/10/25 00:05:02;;;;;;;6.70;4.63;;;14.30;99.90;;;;;;5075882;28;20176;-76
2023/10/25 00:07:27;;;;;;;4.90;4.40;;;14.20;99.90;;;;;;5075620;28;20221;-79
2023/10/25 00:09:53;;;;;;;4.80;4.10;;;14.20;99.90;;;;;;5075478;28;20262;-75
2023/10/25 00:12:21;;;;;;;5.23;4.03;;;14.20;99.90;;;;;;5075665;28;20558;-75
2023/10/25 00:14:46;;;;;;;4.33;3.97;;;14.20;99.90;;;;;;5076107;28;20229;-78
2023/10/25 00:17:12;;;;;;;5.73;4.13;;;14.30;99.90;;;;;;5078590;28;20184;-78
2023/10/25 00:19:38;;;;;;;5.20;3.83;;;14.60;99.90;;;;;;5089739;28;20188;-76
2023/10/25 00:22:04;;;;;;;5.03;4.20;;;14.40;99.90;;;;;;5091945;28;20189;-76
2023/10/25 00:24:30;;;;;;;4.37;3.60;;;14.40;99.90;;;;;;5100239;28;20178;-78
2023/10/25 00:26:55;;;;;;;3.27;3.03;;;14.30;99.90;;;;;;5096441;28;20281;-77
2023/10/25 00:29:21;;;;;;;3.47;3.27;;;14.30;99.90;;;;;;5084836;28;20183;-75
2023/10/25 00:31:47;;;;;;;2.93;2.73;;;14.30;99.90;;;;;;5077375;28;20183;-75
2023/10/25 00:34:13;;;;;;;2.83;2.50;;;14.20;99.90;;;;;;5075650;28;20244;-76
2023/10/25 00:36:38;;;;;;;1.80;1.70;;;14.20;99.90;;;;;;5074903;28;20207;-78
2023/10/25 00:39:04;;;;;;;1.87;1.60;;;14.20;99.90;;;;;;5073875;28;20509;-77
2023/10/25 00:41:30;;;;;;;1.60;1.50;;;14.20;99.90;;;;;;5075786;28;20170;-77
2023/10/25 00:43:55;;;;;;;1.90;1.40;;;14.20;99.90;;;;;;5076276;28;20171;-79
2023/10/25 00:46:28;;;;;;;1.50;1.40;;;14.20;99.90;;;;;;5075267;28;20171;-76
2023/10/25 00:49:00;;;;;;;1.10;1.10;;;14.20;99.90;;;;;;5074522;28;20294;-76
2023/10/25 00:51:28;;;;;;;2.77;1.30;;;14.10;99.90;;;;;;5075771;28;20262;-75
2023/10/25 00:53:55;;;;;;;1.93;1.40;;;14.20;99.90;;;;;;5075581;28;20167;-75
2023/10/25 00:56:24;;;;;;;2.03;1.93;;;14.20;99.90;;;;;;5074818;28;20171;-79
2023/10/25 00:58:53;;;;;;;1.47;1.40;;;14.10;99.90;;;;;;5073697;28;20175;-77
2023/10/25 01:01:21;;;;;;;1.00;1.00;;;14.10;99.90;;;;;;5075205;28;20248;-77
2023/10/25 01:03:47;;;;;;;2.00;1.10;;;14.00;99.90;;;;;;5079052;28;20256;-75
2023/10/25 01:06:13;;;;;;;1.00;1.00;;;14.00;99.90;;;;;;5073419;28;20175;-76
2023/10/25 01:08:40;;;;;;;1.67;0.70;;;13.90;99.90;;;;;;5074572;28;20204;-76
2023/10/25 01:11:06;;;;;;;0.90;0.90;;;13.90;99.90;;;;;;5075487;28;20167;-78
2023/10/25 01:13:32;;;;;;;1.00;1.00;;;14.00;99.90;;;;;;5075240;28;20661;-76
2023/10/25 01:15:58;;;;;;;0.80;0.80;;;13.90;99.90;;;;;;5076412;28;20213;-77
2023/10/25 01:18:23;;;;;;;0.90;0.90;;;13.90;99.90;;;;;;5074896;28;20197;-77
2023/10/25 01:20:49;;;;;;;0.70;0.70;;;13.90;99.90;;;;;;5082209;28;20193;-77
2023/10/25 01:23:15;;;;;;;0.67;0.67;;;13.90;99.90;;;;;;5095768;28;20205;-79
2023/10/25 01:25:44;;;;;;;0.80;0.80;;;13.80;99.90;;;;;;5079767;28;20215;-77
2023/10/25 01:28:11;;;;;;;0.60;0.60;;;13.90;99.90;;;;;;5074846;28;20776;-79
2023/10/25 01:30:37;;;;;;;0.63;0.63;;;14.00;99.90;;;;;;5075652;28;20206;-77
2023/10/25 01:33:03;;;;;;;1.10;1.10;;;14.30;99.90;;;;;;5076746;28;20183;-76
2023/10/25 01:35:28;;;;;;;0.80;0.77;;;13.90;99.90;;;;;;5073424;28;20653;-76
2023/10/25 01:37:54;;;;;;;0.80;0.80;;;13.80;99.90;;;;;;5075125;28;20179;-78
2023/10/25 01:40:20;;;;;;;0.90;0.90;;;13.80;99.90;;;;;;5076320;28;20393;-78
2023/10/25 01:42:46;;;;;;;0.70;0.70;;;13.70;99.90;;;;;;5073795;28;20639;-77
2023/10/25 01:45:12;;;;;;;0.40;0.40;;;13.70;99.90;;;;;;5085475;28;20177;-76
2023/10/25 01:47:39;;;;;;;0.90;0.90;;;13.70;99.90;;;;;;5079003;28;20298;-78
2023/10/25 01:50:08;;;;;;;1.00;1.00;;;13.60;99.90;;;;;;5077068;28;20646;-77
2023/10/25 01:52:34;;;;;;;0.70;0.70;;;13.60;99.90;;;;;;5080176;28;20333;-78
2023/10/25 01:55:00;;;;;;;1.40;1.30;;;13.60;99.90;;;;;;5071955;28;20179;-76
2023/10/25 01:57:26;;;;;;;1.20;1.00;;;13.60;99.90;;;;;;5072692;28;20173;-77
2023/10/25 01:59:52;;;;;;;1.10;1.10;;;13.80;99.90;;;;;;5091035;28;20182;-75
2023/10/25 02:02:18;;;;;;;1.03;1.03;;;13.60;99.90;;;;;;5095037;28;20265;-77
2023/10/25 02:04:44;;;;;;;1.20;1.10;;;13.60;99.90;;;;;;5078847;28;20191;-76
2023/10/25 02:07:10;;;;;;;1.03;1.03;;;13.70;99.90;;;;;;5076168;28;20297;-77
2023/10/25 02:09:35;;;;;;;2.40;1.30;;;13.70;99.90;;;;;;5076210;28;20221;-78
2023/10/25 02:12:01;;;;;;;1.20;1.20;;;13.80;99.90;;;;;;5073294;28;20168;-78
2023/10/25 02:14:28;;;;;;;1.30;1.30;;;13.70;99.90;;;;;;5074131;28;20171;-77
2023/10/25 02:16:53;;;;;;;3.13;1.50;;;13.70;99.90;;;;;;5077755;28;20285;-79
2023/10/25 02:19:19;;;;;;;0.97;0.97;;;13.60;99.90;;;;;;5074404;28;20654;-77
2023/10/25 02:21:46;;;;;;;1.20;1.10;;;13.80;99.90;;;;;;5075220;28;20178;-77
2023/10/25 02:24:14;;;;;;;1.50;1.40;;;13.60;99.90;;;;;;5083376;28;20223;-76
2023/10/25 02:26:40;;;;;;;1.33;1.23;;;13.70;99.90;;;;;;5093210;28;20230;-76
2023/10/25 02:29:06;;;;;;;2.50;1.40;;;13.60;99.90;;;;;;5073242;28;20210;-79
2023/10/25 02:31:37;;;;;;;1.30;1.30;;;13.60;99.90;;;;;;5073039;28;20215;-77
2023/10/25 02:34:03;;;;;;;1.47;1.37;;;13.70;99.90;;;;;;5073830;28;20171;-77
2023/10/25 02:36:29;;;;;;;1.40;1.30;;;13.70;99.90;;;;;;5073403;28;20249;-77
2023/10/25 02:38:55;;;;;;;1.50;1.40;;;13.60;99.90;;;;;;5073284;28;20206;-76
2023/10/25 02:41:20;;;;;;;1.40;1.30;;;13.70;99.90;;;;;;5073040;28;20594;-76
2023/10/25 02:43:46;;;;;;;1.47;1.40;;;13.50;99.90;;;;;;5073772;28;20646;-76
2023/10/25 02:46:13;;;;;;;1.40;1.30;;;13.50;99.90;;;;;;5073998;28;20213;-75
2023/10/25 02:48:39;;;;;;;3.37;2.40;;;13.70;99.90;;;;;;5075990;28;20559;-77
2023/10/25 02:51:05;;;;;;;4.00;2.33;;;13.40;99.90;;;;;;5075124;28;20653;-76
2023/10/25 02:53:31;;;;;;;3.87;1.87;;;13.60;99.90;;;;;;5074204;28;20183;-78
2023/10/25 02:56:07;;;;;;;2.27;2.07;;;13.50;99.90;;;;;;5074273;28;20171;-76
2023/10/25 02:58:33;;;;;;;3.47;2.00;;;13.50;99.90;;;;;;5072613;28;20236;-76
2023/10/25 03:01:01;;;;;;;5.67;1.97;;;13.40;99.90;;;;;;5073373;28;20509;-76
2023/10/25 03:03:28;;;;;;;2.60;2.10;;;13.50;99.90;;;;;;5079570;28;20186;-76
2023/10/25 03:05:54;;;;;;;1.80;1.70;;;13.30;99.90;;;;;;5085376;28;20171;-76
2023/10/25 03:08:21;;;;;;;1.73;1.60;;;13.40;99.90;;;;;;5081064;28;20678;-77
2023/10/25 03:10:47;;;;;;;2.57;1.53;;;13.30;99.90;;;;;;5078153;28;20233;-76
2023/10/25 03:13:13;;;;;;;1.37;1.37;;;13.20;99.90;;;;;;5076766;28;20182;-79
2023/10/25 03:15:38;;;;;;;1.70;1.60;;;13.30;99.90;;;;;;5077665;28;20269;-77
2023/10/25 03:18:05;;;;;;;1.60;1.50;;;13.30;99.90;;;;;;5080045;28;20224;-76
2023/10/25 03:20:32;;;;;;;1.53;1.43;;;13.30;99.90;;;;;;5078092;28;20175;-78
2023/10/25 03:22:58;;;;;;;1.67;1.40;;;13.30;99.90;;;;;;5078519;28;20298;-77
2023/10/25 03:25:23;;;;;;;1.77;1.67;;;13.20;99.90;;;;;;5077012;28;20313;-78
2023/10/25 03:27:49;;;;;;;1.70;1.70;;;13.30;99.90;;;;;;5076697;28;20743;-80
2023/10/25 03:30:16;;;;;;;1.33;1.30;;;13.30;99.90;;;;;;5076766;28;20724;-77
2023/10/25 03:32:43;;;;;;;1.70;1.57;;;13.30;99.90;;;;;;5080298;28;20562;-77
2023/10/25 03:35:09;;;;;;;1.50;1.50;;;13.40;99.90;;;;;;5098140;28;20171;-78
2023/10/25 03:37:39;;;;;;;1.77;1.67;;;13.30;99.90;;;;;;5101056;28;20147;-77
2023/10/25 03:40:09;;;;;;;3.10;1.47;;;13.40;99.90;;;;;;5087885;28;20183;-79
2023/10/25 03:42:35;;;;;;;1.30;1.30;;;13.50;99.90;;;;;;5075654;28;20661;-75
2023/10/25 03:45:02;;;;;;;1.60;1.57;;;13.40;99.90;;;;;;5078337;28;20186;-76
2023/10/25 03:47:27;;;;;;;2.20;1.47;;;13.40;99.90;;;;;;5076889;28;20298;-77
2023/10/25 03:49:53;;;;;;;1.53;1.43;;;13.20;99.90;;;;;;5076804;28;20175;-77
2023/10/25 03:52:19;;;;;;;2.00;1.70;;;13.40;99.90;;;;;;5078715;28;20183;-78
2023/10/25 03:54:45;;;;;;;2.10;1.27;;;13.50;99.90;;;;;;5076894;28;20179;-75
2023/10/25 03:57:11;;;;;;;1.30;1.30;;;13.50;99.90;;;;;;5078394;28;20286;-78
2023/10/25 03:59:38;;;;;;;1.57;1.47;;;13.40;99.90;;;;;;5076697;28;20164;-77
2023/10/25 04:02:04;;;;;;;1.80;1.60;;;13.40;99.90;;;;;;5077936;28;20183;-77
2023/10/25 04:04:30;;;;;;;2.03;1.63;;;13.30;99.90;;;;;;5078175;28;20534;-78
2023/10/25 04:06:56;;;;;;;3.33;2.30;;;13.40;99.90;;;;;;5076417;28;20182;-78
2023/10/25 04:09:22;;;;;;;3.47;2.10;;;13.40;99.90;;;;;;5086328;28;20189;-77
2023/10/25 04:11:48;;;;;;;2.30;2.10;;;13.40;99.90;;;;;;5095255;28;20151;-76
2023/10/25 04:14:14;;;;;;;1.63;1.53;;;13.50;99.90;;;;;;5080379;28;20652;-76
2023/10/25 04:16:40;;;;;;;3.07;2.33;;;13.40;99.90;;;;;;5075820;28;20175;-76
2023/10/25 04:19:06;;;;;;;1.90;1.80;;;13.40;99.90;;;;;;5076234;28;20251;-76
2023/10/25 04:21:32;;;;;;;2.10;2.00;;;13.50;99.90;;;;;;5079036;28;20197;-77
2023/10/25 04:23:57;;;;;;;3.70;3.40;;;13.40;99.90;;;;;;5086393;28;20171;-77
2023/10/25 04:26:23;;;;;;;4.03;3.73;;;13.40;99.90;;;;;;5078547;28;20259;-75
2023/10/25 04:28:49;;;;;;;3.10;2.53;;;13.40;99.90;;;;;;5076637;28;20294;-76
2023/10/25 04:31:17;;;;;;;2.77;2.57;;;13.40;99.90;;;;;;5075187;28;20659;-79
2023/10/25 04:33:42;;;;;;;4.33;3.87;;;13.40;99.90;;;;;;5075510;28;20571;-76
2023/10/25 04:36:08;;;;;;;4.20;3.47;;;13.50;99.90;;;;;;5076758;28;20175;-76
2023/10/25 04:38:35;;;;;;;3.00;2.80;;;13.80;99.90;;;;;;5077451;28;20235;-76
2023/10/25 04:41:01;;;;;;;2.87;2.53;;;13.40;99.90;;;;;;5076158;28;20180;-78
2023/10/25 04:43:26;;;;;;;2.60;2.50;;;13.40;99.90;;;;;;5075581;28;20258;-75
2023/10/25 04:45:52;;;;;;;3.73;3.40;;;13.40;99.90;;;;;;5075863;28;20207;-77
2023/10/25 04:48:18;;;;;;;6.10;3.17;;;13.00;99.90;;;;;;5075544;28;20267;-75
2023/10/25 04:50:44;;;;;;;3.40;2.90;;;13.50;99.90;;;;;;5075453;28;20186;-76
2023/10/25 04:53:10;;;;;;;3.07;2.83;;;12.80;99.90;;;;;;5075423;28;20167;-75
2023/10/25 04:55:36;;;;;;;6.13;3.70;;;13.40;99.90;;;;;;5075957;28;20179;-76
2023/10/25 04:58:03;;;;;;;6.13;3.30;;;14.20;99.90;;;;;;5077200;28;20178;-78
2023/10/25 05:00:31;;;;;;;6.30;3.53;;;13.40;99.90;;;;;;5075446;28;20268;-76
2023/10/25 05:02:57;;;;;;;4.07;3.17;;;13.70;99.90;;;;;;5075339;28;20662;-77
2023/10/25 05:05:32;;;;;;;4.27;3.73;;;13.50;99.90;;;;;;5075379;28;20175;-78
2023/10/25 05:07:58;;;;;;;3.20;3.00;;;13.40;99.90;;;;;;5075418;28;20195;-78
2023/10/25 05:10:25;;;;;;;3.40;3.20;;;13.40;99.90;;;;;;5090133;28;20217;-75
2023/10/25 05:12:51;;;;;;;3.80;3.50;;;13.50;99.90;;;;;;5091906;28;20175;-76
2023/10/25 05:15:18;;;;;;;3.77;3.23;;;12.90;99.90;;;;;;5088017;28;20175;-77
2023/10/25 05:17:47;;;;;;;3.47;3.10;;;13.50;99.90;;;;;;5078463;28;20562;-75
2023/10/25 05:20:13;;;;;;;3.10;2.80;;;13.50;99.90;;;;;;5077552;28;20174;-77
2023/10/25 05:22:48;;;;;;;2.90;2.60;;;13.40;99.90;;;;;;5076665;28;20190;-77
2023/10/25 05:25:15;;;;;;;2.50;2.30;;;13.40;99.90;;;;;;5075443;28;20755;-78
2023/10/25 05:27:41;;;;;;;2.53;2.43;;;13.60;99.90;;;;;;5084437;28;20203;-76
2023/10/25 05:30:12;;;;;;;2.43;2.23;;;13.30;99.90;;;;;;5078849;28;20163;-76
2023/10/25 05:32:43;;;;;;;2.40;2.00;;;13.30;99.90;;;;;;5076340;28;20156;-80
2023/10/25 05:35:09;;;;;;;3.47;2.03;;;13.20;99.90;;;;;;5075923;28;20161;-78
2023/10/25 05:37:36;;;;;;;1.67;1.57;;;13.10;99.90;;;;;;5075588;28;20551;-78
2023/10/25 05:40:04;;;;;;;1.90;1.90;;;13.10;99.90;;;;;;5075920;28;20176;-76
2023/10/25 05:42:38;;;;;;;1.97;1.87;;;13.10;99.90;;;;;;5083625;28;20167;-77
2023/10/25 05:45:05;;;;;;;2.07;1.97;;;13.10;99.90;;;;;;5076780;28;20178;-76
2023/10/25 05:47:31;;;;;;;2.40;2.30;;;13.20;99.90;;;;;;5074212;28;20211;-78
2023/10/25 05:49:57;;;;;;;2.00;1.90;;;13.10;99.90;;;;;;5074752;28;20163;-76
2023/10/25 05:52:23;;;;;;;2.23;2.03;;;13.10;99.90;;;;;;5074731;28;20212;-75
2023/10/25 05:54:49;;;;;;;3.97;2.20;;;13.10;99.90;;;;;;5073336;28;20183;-79
2023/10/25 05:57:15;;;;;;;1.77;1.67;;;13.20;99.90;;;;;;5074573;28;20167;-76
2023/10/25 05:59:41;;;;;;;2.43;1.63;;;13.20;99.90;;;;;;5073133;28;20190;-79
2023/10/25 06:02:14;;;;;;;1.80;1.70;;;13.10;99.90;;;;;;5074288;28;20219;-76
2023/10/25 06:04:41;;;;;;;1.50;1.40;;;13.10;99.90;;;;;;5074501;28;20190;-76
2023/10/25 06:07:09;;;;;;;1.90;1.80;;;13.20;99.90;;;;;;5074166;28;20199;-79
2023/10/25 06:09:37;;;;;;;2.10;1.90;;;13.20;99.90;;;;;;5074587;28;20174;-77
2023/10/25 06:12:03;;;;;;;2.97;2.00;;;13.30;99.90;;;;;;5072828;28;20242;-79
2023/10/25 06:14:29;;;;;;;2.00;1.80;;;13.50;99.90;;;;;;5074121;28;20177;-76
2023/10/25 06:16:56;;;;;;;3.03;2.10;;;13.50;99.90;;;;;;5072118;28;20171;-75
2023/10/25 06:19:22;;;;;;;1.73;1.70;;;13.30;99.90;;;;;;5089690;28;20174;-76
2023/10/25 06:21:48;;;;;;;1.90;1.80;;;13.30;99.90;;;;;;5074003;28;20225;-77
2023/10/25 06:24:14;;;;;;;1.90;1.80;;;13.40;99.90;;;;;;5073195;28;20192;-76
2023/10/25 06:26:41;;;;;;;3.00;1.80;;;13.50;99.90;;;;;;5074265;28;20246;-77
2023/10/25 06:29:07;;;;;;;2.30;1.93;;;13.30;99.90;;;;;;5089612;28;20206;-78
2023/10/25 06:31:33;;;;;;;2.50;2.30;;;13.50;99.90;;;;;;5088454;28;20167;-78
2023/10/25 06:33:59;;;;;;;2.40;2.30;;;13.50;99.90;;;;;;5082686;28;20179;-74
2023/10/25 06:36:25;;;;;;;2.20;2.10;;;13.40;99.90;;;;;;5076914;28;20185;-79
2023/10/25 06:38:52;;;;;;;3.10;2.47;;;13.40;99.90;;;;;;5076103;28;20213;-78
2023/10/25 06:41:24;;;;;;;2.50;2.40;;;13.40;99.90;;;;;;5075836;28;20533;-76
2023/10/25 06:43:50;;;;;;;2.20;2.10;;;13.40;99.90;;;;;;5072744;28;20179;-77
2023/10/25 06:46:17;;;;;;;2.40;2.20;;;13.40;99.90;;;;;;5090414;28;20206;-78
2023/10/25 06:48:43;;;;;;;2.03;1.83;;;13.40;99.90;;;;;;5095035;28;20187;-79
2023/10/25 06:51:09;;;;;;;3.73;2.13;;;13.40;99.90;;;;;;5084938;28;20175;-78
2023/10/25 06:53:38;;;;;;;2.23;2.07;;;13.30;99.90;;;;;;5080279;28;20178;-76
2023/10/25 06:56:05;;;;;;;2.93;2.50;;;13.30;99.90;;;;;;5074069;28;20193;-76
2023/10/25 06:58:32;;;;;;;3.23;2.30;;;13.40;99.90;;;;;;5073919;28;20175;-76
2023/10/25 07:00:59;;;;;;;2.43;2.20;;;13.30;99.90;;;;;;5075775;28;20171;-77
2023/10/25 07:03:33;;;;;;;3.07;2.07;;;13.30;99.90;;;;;;5079467;28;20246;-77
2023/10/25 07:06:01;;;;;;;2.67;2.20;;;13.40;99.90;;;;;;5075696;28;20151;-78
2023/10/25 07:08:30;;;;;;;2.77;1.90;;;13.60;99.90;;;;;;5074045;28;20205;-77
2023/10/25 07:10:56;;;;;;;3.67;2.17;;;13.40;99.90;;;;;;5074245;28;20174;-79
2023/10/25 07:13:24;;;;;;;1.90;1.80;;;13.40;99.90;;;;;;5073879;28;20171;-80
2023/10/25 07:15:51;;;;;;;2.40;2.17;;;13.50;99.90;;;;;;5073474;28;20529;-76
2023/10/25 07:18:17;;;;;;;2.33;2.20;;;13.30;99.90;;;;;;5083762;28;20167;-77
2023/10/25 07:20:43;;;;;;;1.70;1.60;;;13.30;99.90;;;;;;5076779;28;20522;-76
2023/10/25 07:23:09;;;;;;;2.40;1.83;;;13.40;99.90;;;;;;5075277;28;20167;-76
2023/10/25 07:25:38;;;;;;;1.70;1.70;;;13.40;99.90;;;;;;5073831;28;20627;-75
2023/10/25 07:28:04;;;;;;;3.20;1.93;;;13.50;99.90;;;;;;5073278;28;20224;-78
2023/10/25 07:30:31;;;;;;;5.00;2.40;;;13.50;99.90;;;;;;5073278;28;20504;-77
2023/10/25 07:32:57;;;;;;;2.10;1.90;;;13.60;99.90;;;;;;5074419;28;20797;-76
2023/10/25 07:35:22;;;;;;;1.77;1.67;;;13.60;99.90;;;;;;5073482;28;20179;-75
2023/10/25 07:37:48;;;;;;;1.63;1.60;;;13.70;99.90;;;;;;5073580;28;20175;-75
2023/10/25 07:40:14;;;;;;;1.70;1.60;;;13.70;99.90;;;;;;5073248;28;20225;-78
2023/10/25 07:42:39;;;;;;;1.77;1.67;;;13.60;99.90;;;;;;5072740;28;20701;-79
2023/10/25 07:45:05;;;;;;;1.60;1.60;;;13.90;99.90;;;;;;5077197;28;20230;-77
2023/10/25 07:47:31;;;;;;;2.10;1.57;;;14.00;99.90;;;;;;5092009;28;20195;-77
2023/10/25 07:49:58;;;;;;;1.40;1.40;;;14.00;99.90;;;;;;5092143;28;20226;-76
2023/10/25 07:52:27;;;;;;;1.60;1.50;;;14.10;99.90;;;;;;5078895;28;20168;-76
2023/10/25 07:54:53;;;;;;;1.90;1.80;;;14.00;99.90;;;;;;5075216;28;20224;-77
2023/10/25 07:57:19;;;;;;;1.60;1.60;;;14.10;99.90;;;;;;5073772;28;20233;-79
2023/10/25 07:59:45;;;;;;;2.17;1.60;;;14.00;99.90;;;;;;5076582;28;20171;-78
2023/10/25 08:02:11;;;;;;;1.73;1.63;;;13.80;99.90;;;;;;5076409;28;20250;-76
2023/10/25 08:04:37;;;;;;;2.40;1.50;;;13.90;99.90;;;;;;5077304;28;20573;-78
2023/10/25 08:07:03;;;;;;;2.60;1.90;;;13.90;99.90;;;;;;5076939;28;20174;-77
2023/10/25 08:09:30;;;;;;;2.13;2.00;;;13.90;99.90;;;;;;5082461;28;20175;-77
2023/10/25 08:11:55;;;;;;;1.90;1.80;;;14.00;99.90;;;;;;5075927;28;20631;-76
2023/10/25 08:14:21;;;;;;;1.87;1.77;;;14.10;99.90;;;;;;5076594;28;20236;-76
2023/10/25 08:16:47;;;;;;;2.50;1.90;;;14.00;99.90;;;;;;5077621;28;20281;-75
2023/10/25 08:19:15;;;;;;;1.60;1.60;;;14.20;99.90;;;;;;5083314;28;20234;-78
2023/10/25 08:21:41;;;;;;;2.00;1.77;;;14.20;99.90;;;;;;5094741;28;20440;-77
2023/10/25 08:24:07;;;;;;;1.93;1.73;;;14.40;99.90;;;;;;5098376;28;20197;-76
2023/10/25 08:26:37;;;;;;;2.03;1.80;;;14.30;99.90;;;;;;5086706;28;20748;-76
2023/10/25 08:29:05;;;;;;;1.90;1.80;;;14.20;99.90;;;;;;5077831;28;20658;-78
2023/10/25 08:31:31;;;;;;;3.23;1.87;;;14.30;99.90;;;;;;5077437;28;20181;-76
2023/10/25 08:33:57;;;;;;;2.03;1.83;;;14.50;99.90;;;;;;5077256;28;20182;-77
2023/10/25 08:36:23;;;;;;;1.67;1.67;;;14.40;99.90;;;;;;5076070;28;20170;-78
2023/10/25 08:38:49;;;;;;;2.23;2.03;;;14.50;99.90;;;;;;5075334;28;20204;-77
2023/10/25 08:41:17;;;;;;;1.93;1.83;;;14.50;99.90;;;;;;5075873;28;20255;-77
2023/10/25 08:43:44;;;;;;;2.83;1.50;;;14.60;99.90;;;;;;5075724;28;20242;-77
2023/10/25 08:46:10;;;;;;;4.20;1.73;;;14.70;99.90;;;;;;5075828;28;20200;-78
2023/10/25 08:48:36;;;;;;;3.10;1.97;;;14.80;99.90;;;;;;5075980;28;20200;-77
2023/10/25 08:51:03;;;;;;;2.67;2.10;;;14.70;99.90;;;;;;5075351;28;20163;-79
2023/10/25 08:53:30;;;;;;;2.50;2.00;;;14.70;99.90;;;;;;5075566;28;20652;-78
2023/10/25 08:55:56;;;;;;;2.87;1.80;;;14.70;99.90;;;;;;5075702;28;20215;-77
2023/10/25 08:58:24;;;;;;;2.07;1.87;;;14.80;99.90;;;;;;5075676;28;20172;-76
2023/10/25 09:00:51;;;;;;;1.70;1.60;;;14.90;99.90;;;;;;5075870;28;20160;-78
2023/10/25 09:03:31;;;;;;;1.27;1.27;;;14.90;99.90;;;;;;5075638;28;20171;-79
2023/10/25 09:06:02;;;;;;;1.63;1.53;;;15.00;99.90;;;;;;5076190;28;20174;-78
2023/10/25 09:08:28;;;;;;;2.63;1.70;;;15.10;99.90;;;;;;5092687;28;20196;-77
2023/10/25 09:11:06;;;;;;;5.07;2.10;;;15.10;99.90;;;;;;5077538;28;20176;-76
2023/10/25 09:13:35;;;;;;;3.50;1.67;;;15.30;99.90;;;;;;5074848;28;20618;-76
2023/10/25 09:16:08;;;;;;;2.60;2.07;;;15.30;99.90;;;;;;5075314;28;20173;-76
2023/10/25 09:18:35;;;;;;;1.80;1.70;;;15.40;99.90;;;;;;5073974;28;20227;-77
2023/10/25 09:21:02;;;;;;;3.23;1.73;;;15.30;99.90;;;;;;5075284;28;20177;-77
2023/10/25 09:23:32;;;;;;;3.67;2.10;;;15.20;99.90;;;;;;5075235;28;20605;-77
2023/10/25 09:25:58;;;;;;;2.10;1.90;;;15.20;99.90;;;;;;5075235;28;20519;-77
2023/10/25 09:28:27;;;;;;;2.30;2.20;;;15.20;99.90;;;;;;5075209;28;20209;-77
2023/10/25 09:31:00;;;;;;;2.33;2.13;;;15.10;99.90;;;;;;5074927;28;20197;-77
2023/10/25 09:33:30;;;;;;;2.00;1.90;;;15.10;99.90;;;;;;5076779;28;20172;-77
2023/10/25 09:35:57;;;;;;;2.60;2.40;;;15.10;99.90;;;;;;5074783;28;20166;-77
2023/10/25 09:38:24;;;;;;;2.53;2.33;;;15.20;99.90;;;;;;5075106;28;20193;-77
2023/10/25 09:40:50;;;;;;;2.13;2.03;;;15.40;99.90;;;;;;5080228;28;20189;-76
2023/10/25 09:43:21;;;;;;;2.00;1.90;;;15.40;99.90;;;;;;5080859;28;20178;-78
2023/10/25 09:45:54;;;;;;;3.10;2.10;;;14.70;99.90;;;;;;5075209;28;20503;-79
2023/10/25 09:48:21;;;;;;;2.13;2.03;;;15.50;99.90;;;;;;5074848;28;20251;-76
2023/10/25 09:51:12;;;;;;;2.10;2.00;;;15.50;99.90;;;;;;5076666;28;20565;-77
2023/10/25 09:53:41;;;;;;;2.07;1.93;;;15.70;99.90;;;;;;5075756;28;20208;-78
2023/10/25 09:56:08;;;;;;;2.07;1.90;;;15.70;99.90;;;;;;5077907;28;20179;-77
2023/10/25 09:58:35;;;;;;;1.90;1.80;;;15.60;99.90;;;;;;5098098;28;20155;-78
2023/10/25 10:01:05;;;;;;;1.70;1.60;;;15.70;99.90;;;;;;5093765;28;20638;-76
2023/10/25 10:03:44;;;;;;;1.90;1.80;;;15.80;99.90;;;;;;5076115;28;20179;-77
2023/10/25 10:06:21;;;;;;;1.50;1.50;;;16.00;99.90;;;;;;5075045;28;20194;-78
2023/10/25 10:08:54;;;;;;;1.80;1.70;;;16.10;99.90;;;;;;5074527;28;20545;-77
2023/10/25 10:11:27;;;;;;;1.83;1.73;;;16.10;99.90;;;;;;5074762;28;20159;-78
2023/10/25 10:14:28;;;;;;;1.40;1.40;;;16.00;99.90;;;;;;5074944;28;20163;-79
2023/10/25 10:17:12;;;;;;;2.03;1.50;;;15.90;99.90;;;;;;5067688;28;20191;-77
2023/10/25 10:19:57;;;;;;;1.40;1.30;;;15.90;99.90;;;;;;5074199;28;20171;-78
2023/10/25 10:22:23;;;;;;;1.70;1.60;;;16.00;99.90;;;;;;5073811;28;20258;-78
2023/10/25 10:24:52;;;;;;;2.17;2.07;;;16.10;99.90;;;;;;5074520;28;20198;-77
2023/10/25 10:27:20;;;;;;;2.37;1.70;;;16.30;99.90;;;;;;5073971;28;20186;-79
2023/10/25 10:29:47;;;;;;;1.90;1.70;;;16.50;99.90;;;;;;5074420;28;20182;-78
2023/10/25 10:32:14;;;;;;;2.03;1.80;;;16.60;99.90;;;;;;5074275;28;20202;-78
2023/10/25 10:34:45;;;;;;;2.00;1.90;;;16.60;99.90;;;;;;5074073;28;20194;-78
2023/10/25 10:37:16;;;;;;;1.83;1.67;;;16.70;99.90;;;;;;5072974;28;20621;-77
2023/10/25 10:39:57;;;;;;;1.90;1.80;;;16.70;99.90;;;;;;5076342;28;20238;-77
2023/10/25 10:42:29;;;;;;;1.70;1.60;;;16.90;99.90;;;;;;5074665;28;20189;-78
2023/10/25 10:45:03;;;;;;;1.60;1.60;;;17.10;99.90;;;;;;5074027;28;20171;-77
2023/10/25 10:47:36;;;;;;;2.00;1.90;;;17.00;99.90;;;;;;5073657;28;20190;-76
2023/10/25 10:50:19;;;;;;;2.17;2.00;;;16.90;99.90;;;;;;5073337;28;20205;-78
2023/10/25 10:52:46;;;;;;;1.90;1.80;;;16.90;99.90;;;;;;5074450;28;20171;-79
2023/10/25 10:55:14;;;;;;;2.10;2.00;;;16.80;99.90;;;;;;5078142;28;20175;-78
2023/10/25 10:57:40;;;;;;;2.67;2.07;;;16.80;99.90;;;;;;5080865;28;20190;-77
2023/10/25 11:00:08;;;;;;;2.37;2.03;;;16.80;99.90;;;;;;5080877;28;20163;-78
2023/10/25 11:02:37;;;;;;;2.07;1.97;;;16.80;99.90;;;;;;5082550;28;20199;-78
2023/10/25 11:05:07;;;;;;;2.20;2.00;;;16.80;99.90;;;;;;5074102;28;20208;-78
2023/10/25 11:07:33;;;;;;;3.10;2.20;;;16.90;99.90;;;;;;5074061;28;20195;-78
2023/10/25 11:09:59;;;;;;;2.33;2.20;;;17.00;99.90;;;;;;5074141;28;20943;-77
2023/10/25 11:12:26;;;;;;;2.40;2.10;;;17.00;99.90;;;;;;5073782;28;20171;-77
2023/10/25 11:14:52;;;;;;;2.30;2.20;;;17.00;99.90;;;;;;5074233;28;20216;-77
2023/10/25 11:17:18;;;;;;;2.87;2.57;;;17.00;99.90;;;;;;5073779;28;20203;-77
2023/10/25 11:19:46;;;;;;;2.17;1.97;;;17.10;99.90;;;;;;5073681;28;20175;-76
2023/10/25 11:22:12;;;;;;;2.17;2.07;;;17.20;99.90;;;;;;5075524;28;20225;-78
2023/10/25 11:24:39;;;;;;;2.43;2.07;;;17.40;99.90;;;;;;5073875;28;20281;-78
2023/10/25 11:27:05;;;;;;;2.40;2.20;;;17.30;99.90;;;;;;5073206;28;20222;-78
2023/10/25 11:29:37;;;;;;;1.97;1.87;;;17.40;99.90;;;;;;5079677;28;20218;-78
2023/10/25 11:32:06;;;;;;;2.10;2.00;;;17.30;99.90;;;;;;5093674;28;20167;-81
2023/10/25 11:34:33;;;;;;;2.40;2.07;;;17.20;99.90;;;;;;5101849;28;20155;-79
2023/10/25 11:37:02;;;;;;;2.17;2.07;;;17.10;99.90;;;;;;5099532;28;20255;-78
2023/10/25 11:39:34;;;;;;;3.23;2.20;;;16.90;99.90;;;;;;5093031;28;20167;-78
2023/10/25 11:42:00;;;;;;;2.00;1.90;;;16.90;99.90;;;;;;5085485;28;20163;-77
2023/10/25 11:44:27;;;;;;;2.30;2.20;;;16.90;99.90;;;;;;5077984;28;20182;-78
2023/10/25 11:46:58;;;;;;;2.20;2.10;;;16.80;99.90;;;;;;5077407;28;20208;-76
2023/10/25 11:49:25;;;;;;;2.13;1.93;;;16.80;99.90;;;;;;5075542;28;20218;-79
2023/10/25 11:51:54;;;;;;;1.90;1.90;;;16.90;99.90;;;;;;5077327;28;20193;-78
2023/10/25 11:54:20;;;;;;;2.20;2.10;;;16.90;99.90;;;;;;5076922;28;20164;-78
2023/10/25 11:56:48;;;;;;;2.13;2.03;;;17.00;99.90;;;;;;5077184;28;20542;-78
2023/10/25 11:59:13;;;;;;;2.80;2.10;;;17.10;99.90;;;;;;5076536;28;20163;-77
2023/10/25 12:01:39;;;;;;;1.93;1.83;;;17.00;99.90;;;;;;5077180;28;20178;-77
2023/10/25 12:04:05;;;;;;;2.57;1.70;;;17.10;99.90;;;;;;5084213;28;20193;-77
2023/10/25 12:06:31;;;;;;;2.30;2.20;;;17.20;99.90;;;;;;5080286;28;20186;-79
2023/10/25 12:08:57;;;;;;;3.60;1.97;;;17.20;99.90;;;;;;5085824;28;20207;-78
2023/10/25 12:11:23;;;;;;;2.30;2.20;;;17.30;99.90;;;;;;5081918;28;20175;-77
2023/10/25 12:13:49;;;;;;;2.83;1.93;;;17.50;99.90;;;;;;5078815;28;20190;-79
2023/10/25 12:16:14;;;;;;;2.37;2.00;;;17.50;99.90;;;;;;5076412;28;20637;-77
2023/10/25 12:18:40;;;;;;;2.10;1.90;;;17.50;99.90;;;;;;5077925;28;20175;-79
2023/10/25 12:21:08;;;;;;;1.80;1.80;;;17.40;99.90;;;;;;5092864;28;20183;-77
2023/10/25 12:23:34;;;;;;;2.27;1.90;;;17.20;99.90;;;;;;5077092;28;20199;-78
2023/10/25 12:26:00;;;;;;;2.00;1.90;;;17.30;99.90;;;;;;5076106;28;20337;-78
2023/10/25 12:28:27;;;;;;;2.03;1.93;;;17.10;99.90;;;;;;5076438;28;20733;-79
2023/10/25 12:30:53;;;;;;;2.83;1.70;;;17.10;99.90;;;;;;5075798;28;20221;-77
2023/10/25 12:33:19;;;;;;;2.00;1.90;;;15.70;99.90;;;;;;5079276;28;20615;-79
2023/10/25 12:35:45;;;;;;;1.77;1.70;;;17.00;99.90;;;;;;5077923;28;20270;-78
2023/10/25 12:38:11;;;;;;;2.00;1.90;;;17.10;99.90;;;;;;5076748;28;20182;-77
2023/10/25 12:40:38;;;;;;;2.07;1.93;;;17.10;99.90;;;;;;5077700;28;20174;-78
2023/10/25 12:43:03;;;;;;;2.53;2.03;;;16.90;99.90;;;;;;5081203;28;20296;-77
2023/10/25 12:45:29;;;;;;;2.73;2.20;;;16.90;99.90;;;;;;5078621;28;20198;-80
2023/10/25 12:47:55;;;;;;;2.30;1.83;;;17.00;99.90;;;;;;5089571;28;20206;-77